Time;durP1;ratioP1;P1;durP2;ratioP2;P2;SDS_P1;SDS_P2;PMS_P1;PMS_P2;Temp;Humidity;BMP_temperature;BMP_pressure;BME280_temperature;BME280_humidity;BME280_pressure;Samples;Min_cycle;Max_cycle;Signal;HPM_P1;HPM_P2
2022/10/28 00:01:08;;;;;;;;;;;;;;;21.55;72.39;101098.53;7283710;19;152753;-56
2022/10/28 00:03:39;;;;;;;;;;;;;;;21.55;72.46;101108.94;7283483;19;153201;-57
2022/10/28 00:06:08;;;;;;;;;;;;;;;21.55;72.31;101108.94;7281336;19;152094;-56
2022/10/28 00:08:35;;;;;;;;;;;;;;;21.54;72.89;101112.88;7284160;19;153687;-57
2022/10/28 00:11:05;;;;;;;;;;;;;;;21.55;72.71;101109.78;7281479;19;152205;-56
2022/10/28 00:13:32;;;;;;;;;;;;;;;21.56;72.67;101116.25;7278753;19;151996;-56
2022/10/28 00:16:09;;;;;;;;;;;;;;;21.55;72.93;101118.22;7286532;19;153710;-55
2022/10/28 00:18:37;;;;;;;;;;;;;;;21.55;72.71;101118.22;7281392;19;152218;-56
2022/10/28 00:21:05;;;;;;;;;;;;;;;21.57;72.99;101120.72;7281241;19;152708;-56
2022/10/28 00:23:32;;;;;;;;;;;;;;;21.56;73.11;101117.06;7283744;19;154018;-56
2022/10/28 00:26:15;;;;;;;;;;;;;;;21.58;72.89;101119.56;7283569;19;151869;-56
2022/10/28 00:28:43;;;;;;;;;;;;;;;21.58;72.93;101113.94;7281573;19;153626;-56
2022/10/28 00:31:11;;;;;;;;;;;;;;;21.57;73.03;101109.47;7280561;19;153549;-55
2022/10/28 00:33:37;;;;;;;;;;;;;;;21.58;73.19;101114.75;7283090;19;152030;-56
2022/10/28 00:36:12;;;;;;;;;;;;;;;21.58;73.14;101114.75;7282398;19;153815;-56
2022/10/28 00:38:39;;;;;;;;;;;;;;;21.58;73.17;101109.16;7288900;19;153558;-56
2022/10/28 00:41:06;;;;;;;;;;;;;;;21.58;73.53;101109.16;7280994;19;154134;-56
2022/10/28 00:43:35;;;;;;;;;;;;;;;21.58;74.40;101114.75;7279623;19;153546;-56
2022/10/28 00:46:02;;;;;;;;;;;;;;;21.58;73.92;101105.50;7280779;19;152134;-56
2022/10/28 00:48:29;;;;;;;;;;;;;;;21.58;73.94;101097.91;7280676;19;153185;-56
2022/10/28 00:50:56;;;;;;;;;;;;;;;21.59;73.77;101102.38;7279129;19;152889;-56
2022/10/28 00:53:25;;;;;;;;;;;;;;;21.60;74.05;101106.03;7282275;19;152652;-56
2022/10/28 00:55:52;;;;;;;;;;;;;;;21.60;74.36;101106.88;7282108;19;153613;-57
2022/10/28 00:58:21;;;;;;;;;;;;;;;21.60;74.32;101103.22;7277117;19;152811;-58
2022/10/28 01:00:47;;;;;;;;;;;;;;;21.61;74.01;101105.72;7289282;19;151977;-58
2022/10/28 01:03:14;;;;;;;;;;;;;;;21.61;73.89;101107.69;7281669;19;153808;-58
2022/10/28 01:05:43;;;;;;;;;;;;;;;21.61;74.03;101099.28;7280997;19;152070;-57
2022/10/28 01:08:09;;;;;;;;;;;;;;;21.62;74.14;101098.13;7279897;19;153624;-57
2022/10/28 01:10:55;;;;;;;;;;;;;;;21.61;73.84;101105.72;7281236;19;154074;-58
2022/10/28 01:13:31;;;;;;;;;;;;;;;21.61;74.16;101108.53;7277707;19;152138;-57
2022/10/28 01:16:04;;;;;;;;;;;;;;;21.61;74.27;101108.53;7280518;19;152633;-57
2022/10/28 01:18:53;;;;;;;;;;;;;;;21.62;74.30;101103.75;7280797;19;154194;-57
2022/10/28 01:21:39;;;;;;;;;;;;;;;21.62;74.27;101093.31;7279262;19;152140;-57
2022/10/28 01:24:19;;;;;;;;;;;;;;;21.60;74.35;101098.44;7287505;19;152891;-57
2022/10/28 01:27:04;;;;;;;;;;;;;;;21.61;74.46;101094.47;7279440;19;151801;-57
2022/10/28 01:29:45;;;;;;;;;;;;;;;21.61;74.51;101099.28;7280578;19;152777;-57
2022/10/28 01:32:17;;;;;;;;;;;;;;;21.61;74.46;101102.91;7277635;19;153375;-57
2022/10/28 01:34:57;;;;;;;;;;;;;;;21.60;74.67;101090.00;7281684;19;151573;-57
2022/10/28 01:37:30;;;;;;;;;;;;;;;21.61;74.58;101097.28;7278192;19;152603;-57
2022/10/28 01:40:07;;;;;;;;;;;;;;;21.61;75.05;101091.66;7279726;19;153929;-57
2022/10/28 01:42:49;;;;;;;;;;;;;;;21.60;74.82;101081.56;7277408;19;152174;-57
2022/10/28 01:45:24;;;;;;;;;;;;;;;21.61;74.63;101080.41;7286297;19;152028;-57
2022/10/28 01:47:51;;;;;;;;;;;;;;;21.62;74.45;101076.44;7281288;19;151692;-57
2022/10/28 01:50:27;;;;;;;;;;;;;;;21.62;74.69;101075.63;7281215;19;153668;-58
2022/10/28 01:52:57;;;;;;;;;;;;;;;21.62;74.17;101090.50;7278967;19;153390;-57
2022/10/28 01:55:26;;;;;;;;;;;;;;;21.62;74.66;101082.06;7281449;19;152194;-57
2022/10/28 01:57:54;;;;;;;;;;;;;;;21.63;74.27;101069.69;7274552;19;153067;-57
2022/10/28 02:00:21;;;;;;;;;;;;;;;21.64;74.32;101062.91;7278218;19;152449;-58
2022/10/28 02:02:49;;;;;;;;;;;;;;;21.63;74.35;101066.03;7280564;19;152025;-57
2022/10/28 02:05:34;;;;;;;;;;;;;;;21.64;74.52;101062.06;7286029;19;153176;-56
2022/10/28 02:08:16;;;;;;;;;;;;;;;21.63;74.45;101057.59;7289137;19;153002;-56
2022/10/28 02:11:02;;;;;;;;;;;;;;;21.63;74.42;101055.63;7283330;19;152964;-56
2022/10/28 02:13:38;;;;;;;;;;;;;;;21.63;74.71;101044.38;7283373;19;153291;-58
2022/10/28 02:16:04;;;;;;;;;;;;;;;21.63;74.46;101043.53;7286403;19;152295;-58
2022/10/28 02:18:41;;;;;;;;;;;;;;;21.63;74.49;101030.31;7286043;19;153538;-56
2022/10/28 02:21:15;;;;;;;;;;;;;;;21.63;74.81;101041.56;7286210;19;154433;-56
2022/10/28 02:23:58;;;;;;;;;;;;;;;21.64;74.75;101026.34;7288110;19;152423;-56
2022/10/28 02:26:33;;;;;;;;;;;;;;;21.64;74.65;101022.72;7283199;19;153060;-58
2022/10/28 02:29:12;;;;;;;;;;;;;;;21.63;75.28;101019.06;7283268;19;154165;-56
2022/10/28 02:31:42;;;;;;;;;;;;;;;21.63;74.81;101013.44;7291883;19;152048;-56
2022/10/28 02:34:12;;;;;;;;;;;;;;;21.63;74.75;101005.00;7286572;19;153338;-57
2022/10/28 02:36:41;;;;;;;;;;;;;;;21.63;75.14;101005.00;7284901;19;152092;-57
2022/10/28 02:39:07;;;;;;;;;;;;;;;21.63;75.22;100996.56;7286940;19;153611;-57
2022/10/28 02:41:37;;;;;;;;;;;;;;;21.64;75.30;101001.06;7283579;19;153291;-56
2022/10/28 02:44:10;;;;;;;;;;;;;;;21.64;75.25;100995.44;7285872;19;151933;-56
2022/10/28 02:46:38;;;;;;;;;;;;;;;21.63;75.66;100988.13;7286157;19;153277;-57
2022/10/28 02:49:07;;;;;;;;;;;;;;;21.63;75.74;100978.84;7285451;19;154030;-56
2022/10/28 02:51:36;;;;;;;;;;;;;;;21.63;75.69;100982.50;7286033;19;152375;-56
2022/10/28 02:54:12;;;;;;;;;;;;;;;21.63;76.13;100964.81;7291062;19;153504;-56
2022/10/28 02:56:42;;;;;;;;;;;;;;;21.62;75.68;100963.97;7280421;19;152149;-56
2022/10/28 02:59:10;;;;;;;;;;;;;;;21.63;75.70;100950.75;7284466;19;152927;-57
2022/10/28 03:01:37;;;;;;;;;;;;;;;21.63;75.81;100945.94;7282773;19;153977;-56
2022/10/28 03:04:04;;;;;;;;;;;;;;;21.62;75.93;100947.09;7286878;19;152036;-56
2022/10/28 03:06:31;;;;;;;;;;;;;;;21.63;76.18;100936.69;7281184;19;152699;-55
2022/10/28 03:09:00;;;;;;;;;;;;;;;21.63;75.58;100945.94;7282237;19;153341;-56
2022/10/28 03:11:27;;;;;;;;;;;;;;;21.64;75.88;100935.53;7281581;19;154201;-56
2022/10/28 03:13:54;;;;;;;;;;;;;;;21.64;75.58;100932.72;7284798;19;153792;-58
2022/10/28 03:16:20;;;;;;;;;;;;;;;21.64;76.06;100933.56;7290926;19;153719;-56
2022/10/28 03:18:47;;;;;;;;;;;;;;;21.65;75.52;100940.03;7286392;19;153637;-56
2022/10/28 03:21:13;;;;;;;;;;;;;;;21.64;75.88;100933.56;7283786;19;154137;-55
2022/10/28 03:23:40;;;;;;;;;;;;;;;21.65;76.06;100925.97;7285893;19;151833;-56
2022/10/28 03:26:07;;;;;;;;;;;;;;;21.64;75.98;100915.84;7280460;19;153159;-56
2022/10/28 03:28:34;;;;;;;;;;;;;;;21.65;76.07;100917.53;7281376;19;153473;-57
2022/10/28 03:31:00;;;;;;;;;;;;;;;21.65;75.89;100912.75;7285806;19;152052;-56
2022/10/28 03:33:27;;;;;;;;;;;;;;;21.64;75.97;100918.66;7283915;19;152767;-56
2022/10/28 03:35:53;;;;;;;;;;;;;;;21.64;76.12;100913.88;7283730;19;153921;-56
2022/10/28 03:38:20;;;;;;;;;;;;;;;21.64;76.15;100905.44;7289458;19;151628;-56
2022/10/28 03:40:48;;;;;;;;;;;;;;;21.64;76.06;100911.06;7283682;19;154133;-56
2022/10/28 03:43:15;;;;;;;;;;;;;;;21.63;75.54;100903.78;7281348;19;152175;-56
2022/10/28 03:45:41;;;;;;;;;;;;;;;21.64;76.08;100897.00;7283508;19;153546;-56
2022/10/28 03:48:08;;;;;;;;;;;;;;;21.64;75.69;100899.81;7280897;19;154738;-56
2022/10/28 03:50:35;;;;;;;;;;;;;;;21.64;75.83;100896.19;7284828;19;154064;-56
2022/10/28 03:53:02;;;;;;;;;;;;;;;21.63;76.06;100892.53;7284138;19;152766;-56
2022/10/28 03:55:28;;;;;;;;;;;;;;;21.63;76.20;100898.16;7283644;19;152768;-56
2022/10/28 03:57:55;;;;;;;;;;;;;;;21.63;75.84;100898.16;7286952;19;151960;-56
2022/10/28 04:00:22;;;;;;;;;;;;;;;21.65;75.50;100897.84;7279841;19;152925;-56
2022/10/28 04:02:49;;;;;;;;;;;;;;;21.65;75.89;100903.47;7283427;19;153187;-57
2022/10/28 04:05:17;;;;;;;;;;;;;;;21.64;75.80;100918.66;7283890;19;152274;-56
2022/10/28 04:07:43;;;;;;;;;;;;;;;21.65;76.00;100914.72;7281222;19;154428;-57
2022/10/28 04:10:10;;;;;;;;;;;;;;;21.64;76.23;100922.31;7283925;19;152398;-58
2022/10/28 04:12:37;;;;;;;;;;;;;;;21.63;75.83;100934.72;7281883;19;153062;-56
2022/10/28 04:15:04;;;;;;;;;;;;;;;21.63;76.11;100919.81;7282184;19;154023;-56
2022/10/28 04:17:32;;;;;;;;;;;;;;;21.62;76.25;100912.56;7282688;19;153137;-57
2022/10/28 04:19:59;;;;;;;;;;;;;;;21.62;76.21;100916.16;7291106;19;153631;-57
2022/10/28 04:22:26;;;;;;;;;;;;;;;21.61;76.17;100917.34;7281186;19;151688;-56
2022/10/28 04:24:53;;;;;;;;;;;;;;;21.62;75.65;100909.75;7283129;19;153485;-56
2022/10/28 04:27:20;;;;;;;;;;;;;;;21.62;75.80;100901.31;7278867;19;154271;-56
2022/10/28 04:29:47;;;;;;;;;;;;;;;21.62;76.31;100901.31;7282612;19;152464;-57
2022/10/28 04:32:13;;;;;;;;;;;;;;;21.62;75.78;100890.06;7283159;19;153437;-57
2022/10/28 04:34:40;;;;;;;;;;;;;;;21.62;76.16;100884.44;7283130;19;153953;-56
2022/10/28 04:37:06;;;;;;;;;;;;;;;21.62;76.09;100888.03;7283122;19;152990;-56
2022/10/28 04:39:33;;;;;;;;;;;;;;;21.63;76.15;100888.88;7280714;19;152733;-56
2022/10/28 04:42:00;;;;;;;;;;;;;;;21.62;75.92;100882.41;7287067;19;153525;-56
2022/10/28 04:44:26;;;;;;;;;;;;;;;21.62;76.14;100879.59;7281484;19;153041;-57
2022/10/28 04:46:54;;;;;;;;;;;;;;;21.61;76.08;100872.34;7281598;19;154172;-56
2022/10/28 04:49:21;;;;;;;;;;;;;;;21.63;76.00;100872.00;7281986;19;152140;-57
2022/10/28 04:51:47;;;;;;;;;;;;;;;21.61;76.36;100883.59;7282427;19;153431;-56
2022/10/28 04:54:14;;;;;;;;;;;;;;;21.61;77.63;100877.13;7281749;19;153851;-55
2022/10/28 04:56:41;;;;;;;;;;;;;;;21.64;77.08;100868.06;7280185;19;152232;-56
2022/10/28 04:59:07;;;;;;;;;;;;;;;21.62;75.93;100871.19;7278132;19;154752;-56
2022/10/28 05:01:34;;;;;;;;;;;;;;;21.61;76.73;100877.97;7280232;19;154636;-56
2022/10/28 05:04:01;;;;;;;;;;;;;;;21.61;75.54;100865.88;7290510;19;152119;-57
2022/10/28 05:06:28;;;;;;;;;;;;;;;21.61;75.45;100872.34;7278589;19;155159;-57
2022/10/28 05:08:54;;;;;;;;;;;;;;;21.61;75.45;100863.06;7282873;19;152206;-57
2022/10/28 05:11:21;;;;;;;;;;;;;;;21.62;75.21;100864.75;7280202;19;153851;-57
2022/10/28 05:13:48;;;;;;;;;;;;;;;21.63;75.49;100870.03;7280188;19;153664;-57
2022/10/28 05:16:14;;;;;;;;;;;;;;;21.63;75.62;100863.56;7279570;19;152293;-57
2022/10/28 05:18:47;;;;;;;;;;;;;;;21.63;75.72;100861.59;7279901;19;152504;-57
2022/10/28 05:21:14;;;;;;;;;;;;;;;21.62;75.72;100868.38;7279737;19;152287;-57
2022/10/28 05:23:41;;;;;;;;;;;;;;;21.62;75.83;100874.00;7279753;19;151817;-57
2022/10/28 05:26:08;;;;;;;;;;;;;;;21.61;75.67;100880.78;7286957;19;153020;-56
2022/10/28 05:28:34;;;;;;;;;;;;;;;21.62;75.54;100890.84;7275699;19;152130;-56
2022/10/28 05:31:01;;;;;;;;;;;;;;;21.61;75.92;100894.84;7280705;19;151804;-56
2022/10/28 05:33:27;;;;;;;;;;;;;;;21.60;75.77;100907.22;7279971;19;154450;-56
2022/10/28 05:35:54;;;;;;;;;;;;;;;21.60;75.99;100909.22;7281264;19;151917;-57
2022/10/28 05:38:21;;;;;;;;;;;;;;;21.59;76.12;100913.16;7282704;19;152883;-56
2022/10/28 05:40:47;;;;;;;;;;;;;;;21.60;75.74;100909.22;7286419;19;153428;-57
2022/10/28 05:43:14;;;;;;;;;;;;;;;21.60;75.80;100906.41;7284202;19;151813;-56
2022/10/28 05:45:41;;;;;;;;;;;;;;;21.60;75.85;100895.97;7288286;19;153208;-57
2022/10/28 05:48:08;;;;;;;;;;;;;;;21.58;76.18;100892.66;7293309;19;152762;-56
2022/10/28 05:50:35;;;;;;;;;;;;;;;21.56;76.26;100889.34;7287856;19;152597;-56
2022/10/28 05:53:01;;;;;;;;;;;;;;;21.60;76.20;100897.97;7286459;19;154132;-56
2022/10/28 05:55:28;;;;;;;;;;;;;;;21.59;76.15;100894.31;7287538;19;152669;-57
2022/10/28 05:57:55;;;;;;;;;;;;;;;21.60;76.42;100892.34;7283459;19;153666;-57
2022/10/28 06:00:23;;;;;;;;;;;;;;;21.60;76.58;100903.59;7284858;19;153404;-57
2022/10/28 06:02:50;;;;;;;;;;;;;;;21.59;76.39;100897.13;7287013;19;152276;-57
2022/10/28 06:05:18;;;;;;;;;;;;;;;21.60;76.56;100898.78;7284662;19;152954;-57
2022/10/28 06:07:44;;;;;;;;;;;;;;;21.61;76.21;100888.38;7291883;19;153703;-57
2022/10/28 06:10:11;;;;;;;;;;;;;;;21.62;76.27;100879.59;7285499;19;153290;-56
2022/10/28 06:12:38;;;;;;;;;;;;;;;21.62;76.40;100881.63;7283076;19;154783;-56
2022/10/28 06:15:05;;;;;;;;;;;;;;;21.61;77.37;100885.56;7286491;19;152152;-56
2022/10/28 06:17:31;;;;;;;;;;;;;;;21.65;77.18;100876.19;7286438;19;153360;-56
2022/10/28 06:19:58;;;;;;;;;;;;;;;21.66;76.29;100865.78;7283133;19;153726;-57
2022/10/28 06:22:24;;;;;;;;;;;;;;;21.64;76.65;100888.56;7286730;19;151927;-56
2022/10/28 06:24:51;;;;;;;;;;;;;;;21.63;76.54;100906.59;7286988;19;151940;-56
2022/10/28 06:27:18;;;;;;;;;;;;;;;21.64;76.49;100913.03;7282343;19;154282;-56
2022/10/28 06:29:44;;;;;;;;;;;;;;;21.64;76.59;100905.44;7292715;19;152074;-56
2022/10/28 06:32:11;;;;;;;;;;;;;;;21.64;76.71;100896.19;7285469;19;153804;-56
2022/10/28 06:34:38;;;;;;;;;;;;;;;21.64;76.92;100907.41;7286481;19;152329;-56
2022/10/28 06:37:06;;;;;;;;;;;;;;;21.63;76.55;100912.22;7285952;19;153716;-56
2022/10/28 06:39:33;;;;;;;;;;;;;;;21.64;76.25;100905.44;7283100;19;153414;-57
2022/10/28 06:41:59;;;;;;;;;;;;;;;21.64;76.30;100910.22;7284107;19;151997;-57
2022/10/28 06:44:26;;;;;;;;;;;;;;;21.64;76.68;100915.84;7284896;19;153146;-57
2022/10/28 06:46:53;;;;;;;;;;;;;;;21.63;76.45;100915.03;7285316;19;153902;-57
2022/10/28 06:49:19;;;;;;;;;;;;;;;21.63;76.51;100931.91;7286418;19;151773;-57
2022/10/28 06:51:46;;;;;;;;;;;;;;;21.63;76.38;100931.06;7291579;19;154055;-57
2022/10/28 06:54:13;;;;;;;;;;;;;;;21.63;76.67;100929.09;7288020;19;151927;-57
2022/10/28 06:56:39;;;;;;;;;;;;;;;21.63;76.17;100925.44;7283010;19;153436;-57
2022/10/28 06:59:09;;;;;;;;;;;;;;;21.63;76.34;100934.72;7282866;19;152501;-57
2022/10/28 07:01:36;;;;;;;;;;;;;;;21.62;76.65;100927.41;7284614;19;152274;-57
2022/10/28 07:04:03;;;;;;;;;;;;;;;21.63;76.69;100928.25;7286880;19;153428;-57
2022/10/28 07:06:29;;;;;;;;;;;;;;;21.63;76.13;100936.69;7281245;19;154001;-57
2022/10/28 07:08:56;;;;;;;;;;;;;;;21.61;76.50;100937.03;7286445;19;152311;-55
2022/10/28 07:11:23;;;;;;;;;;;;;;;21.60;77.16;100945.75;7284568;19;153164;-56
2022/10/28 07:13:49;;;;;;;;;;;;;;;21.57;77.29;100950.03;7288856;19;153183;-56
2022/10/28 07:16:16;;;;;;;;;;;;;;;21.57;77.71;100954.84;7284537;19;152300;-56
2022/10/28 07:18:42;;;;;;;;;;;;;;;21.58;77.35;100943.25;7283875;19;154728;-56
2022/10/28 07:21:09;;;;;;;;;;;;;;;21.60;77.37;100951.38;7285494;19;152013;-57
2022/10/28 07:23:36;;;;;;;;;;;;;;;21.59;77.61;100946.91;7284896;19;152872;-56
2022/10/28 07:26:02;;;;;;;;;;;;;;;21.60;78.35;100951.38;7283396;19;153367;-58
2022/10/28 07:28:29;;;;;;;;;;;;;;;21.61;78.55;100953.06;7283564;19;152328;-57
2022/10/28 07:31:02;;;;;;;;;;;;;;;21.60;78.56;100948.56;7282457;19;152920;-57
2022/10/28 07:33:30;;;;;;;;;;;;;;;21.59;78.46;100956.16;7283646;19;153421;-57
2022/10/28 07:35:58;;;;;;;;;;;;;;;21.59;78.63;100958.97;7289852;19;152295;-58
2022/10/28 07:38:25;;;;;;;;;;;;;;;21.60;78.89;100957.84;7282356;19;153391;-58
2022/10/28 07:40:51;;;;;;;;;;;;;;;21.61;78.25;100989.59;7282930;19;152039;-57
2022/10/28 07:43:18;;;;;;;;;;;;;;;21.61;78.78;101007.31;7279856;19;153600;-58
2022/10/28 07:45:45;;;;;;;;;;;;;;;21.63;78.42;101012.59;7281790;19;153469;-58
2022/10/28 07:48:11;;;;;;;;;;;;;;;21.64;78.13;101005.84;7285347;19;151886;-58
2022/10/28 07:50:39;;;;;;;;;;;;;;;21.64;78.51;101003.03;7283608;19;153583;-58
2022/10/28 07:53:06;;;;;;;;;;;;;;;21.65;78.01;101005.53;7283693;19;153574;-57
2022/10/28 07:55:32;;;;;;;;;;;;;;;21.66;79.36;101003.56;7291081;19;151936;-58
2022/10/28 07:57:59;;;;;;;;;;;;;;;21.67;78.83;101005.19;7279368;19;154346;-58
2022/10/28 08:00:26;;;;;;;;;;;;;;;21.67;78.05;101006.03;7280899;19;152395;-58
2022/10/28 08:02:52;;;;;;;;;;;;;;;21.67;78.71;101002.38;7284042;19;153517;-58
2022/10/28 08:05:19;;;;;;;;;;;;;;;21.65;79.20;101007.50;7283175;19;153845;-58
2022/10/28 08:07:46;;;;;;;;;;;;;;;21.67;78.29;101003.22;7282538;19;152602;-56
2022/10/28 08:10:13;;;;;;;;;;;;;;;21.67;78.62;101005.19;7282661;19;152321;-56
2022/10/28 08:12:40;;;;;;;;;;;;;;;21.65;78.66;101019.59;7280517;19;153053;-56
2022/10/28 08:15:09;;;;;;;;;;;;;;;21.64;78.81;101014.28;7283092;19;152178;-56
2022/10/28 08:17:35;;;;;;;;;;;;;;;21.65;78.57;101011.16;7290782;19;153304;-58
2022/10/28 08:20:03;;;;;;;;;;;;;;;21.66;78.17;101026.88;7278169;19;152700;-58
2022/10/28 08:22:29;;;;;;;;;;;;;;;21.68;77.82;101026.56;7281061;19;153429;-57
2022/10/28 08:24:56;;;;;;;;;;;;;;;21.70;77.64;101027.09;7279996;19;152860;-57
2022/10/28 08:27:22;;;;;;;;;;;;;;;21.71;77.70;101028.75;7279529;19;152576;-56
2022/10/28 08:29:49;;;;;;;;;;;;;;;21.72;77.32;101033.22;7281469;19;153695;-57
2022/10/28 08:32:16;;;;;;;;;;;;;;;21.74;77.12;101036.56;7282777;19;153235;-57
2022/10/28 08:34:42;;;;;;;;;;;;;;;21.75;77.18;101035.41;7283385;19;151842;-58
2022/10/28 08:37:09;;;;;;;;;;;;;;;21.76;76.85;101039.06;7284428;19;152764;-57
2022/10/28 08:39:36;;;;;;;;;;;;;;;21.77;76.95;101041.53;7287684;19;153283;-57
2022/10/28 08:42:06;;;;;;;;;;;;;;;21.77;76.63;101037.91;7280264;19;154017;-57
2022/10/28 08:44:52;;;;;;;;;;;;;;;21.77;76.62;101044.34;7279717;19;153685;-57
2022/10/28 08:47:24;;;;;;;;;;;;;;;21.76;76.75;101044.69;7282904;19;151862;-57
2022/10/28 08:49:56;;;;;;;;;;;;;;;21.75;76.70;101063.53;7282543;19;151852;-57
2022/10/28 08:52:30;;;;;;;;;;;;;;;21.77;76.77;101032.28;7280548;19;154414;-57
2022/10/28 08:55:06;;;;;;;;;;;;;;;21.77;76.47;101041.53;7283235;19;152060;-57
2022/10/28 08:57:44;;;;;;;;;;;;;;;21.77;76.30;101049.97;7280506;19;153355;-58
2022/10/28 09:00:19;;;;;;;;;;;;;;;21.78;76.47;101054.47;7278432;19;154323;-57
2022/10/28 09:03:06;;;;;;;;;;;;;;;21.78;76.31;101054.47;7287214;19;152546;-58
2022/10/28 09:05:33;;;;;;;;;;;;;;;21.77;76.48;101047.16;7278408;19;154105;-58
2022/10/28 09:08:00;;;;;;;;;;;;;;;21.77;76.44;101049.16;7282099;19;153933;-57
2022/10/28 09:10:33;;;;;;;;;;;;;;;21.78;76.10;101064.88;7281248;19;152929;-58
2022/10/28 09:13:00;;;;;;;;;;;;;;;21.78;76.28;101059.25;7282113;19;152687;-58
2022/10/28 09:15:43;;;;;;;;;;;;;;;21.78;76.37;101067.69;7287766;19;152622;-57
2022/10/28 09:18:12;;;;;;;;;;;;;;;21.77;75.84;101071.66;7288861;19;153066;-57
2022/10/28 09:20:50;;;;;;;;;;;;;;;21.78;75.97;101071.34;7284665;19;153453;-57
2022/10/28 09:23:22;;;;;;;;;;;;;;;21.77;75.93;101078.09;7288408;19;153615;-57
2022/10/28 09:26:00;;;;;;;;;;;;;;;21.76;75.74;101073.63;7294975;19;152184;-58
2022/10/28 09:28:45;;;;;;;;;;;;;;;21.77;75.84;101086.53;7286138;19;152099;-58
2022/10/28 09:31:39;;;;;;;;;;;;;;;21.76;75.66;101093.31;7288300;19;152646;-58
2022/10/28 09:34:42;;;;;;;;;;;;;;;21.77;75.62;101094.16;7287293;19;152786;-58
2022/10/28 09:37:09;;;;;;;;;;;;;;;21.74;75.38;101099.28;7289001;19;152013;-56
2022/10/28 09:39:58;;;;;;;;;;;;;;;21.76;75.23;101117.81;7286053;19;152389;-56
2022/10/28 09:42:39;;;;;;;;;;;;;;;21.76;75.27;101107.38;7281842;19;154763;-56
2022/10/28 09:45:29;;;;;;;;;;;;;;;21.76;75.07;101120.63;7283843;19;153321;-56
2022/10/28 09:48:05;;;;;;;;;;;;;;;21.75;75.32;101131.03;7285850;19;152724;-56
2022/10/28 09:50:32;;;;;;;;;;;;;;;21.75;75.07;101133.84;7293909;19;154100;-56
2022/10/28 09:53:13;;;;;;;;;;;;;;;21.75;74.79;101136.66;7286973;19;153545;-57
2022/10/28 09:55:39;;;;;;;;;;;;;;;21.76;74.66;101145.94;7286752;19;153404;-56
2022/10/28 09:58:06;;;;;;;;;;;;;;;21.75;74.50;101150.72;7284369;19;151915;-57
2022/10/28 10:00:33;;;;;;;;;;;;;;;21.76;74.90;101145.94;7284654;19;152634;-57
2022/10/28 10:02:59;;;;;;;;;;;;;;;21.74;74.15;101155.53;7286653;19;153464;-57
2022/10/28 10:05:27;;;;;;;;;;;;;;;21.77;74.12;101153.22;7286594;19;152173;-57
2022/10/28 10:07:56;;;;;;;;;;;;;;;21.74;74.58;101163.97;7286042;19;152125;-56
2022/10/28 10:10:45;;;;;;;;;;;;;;;21.76;74.63;101165.63;7293352;19;153460;-56
2022/10/28 10:13:14;;;;;;;;;;;;;;;21.75;74.92;101170.41;7282306;19;153939;-56
2022/10/28 10:15:51;;;;;;;;;;;;;;;21.74;74.76;101183.66;7285066;19;153467;-58
2022/10/28 10:18:21;;;;;;;;;;;;;;;21.77;74.41;101193.44;7286120;19;152799;-56
2022/10/28 10:20:50;;;;;;;;;;;;;;;21.77;74.13;101192.59;7283177;19;153597;-56
2022/10/28 10:23:26;;;;;;;;;;;;;;;21.78;73.69;101202.69;7283920;19;154470;-56
2022/10/28 10:25:54;;;;;;;;;;;;;;;21.77;73.57;101199.06;7288375;19;151838;-56
2022/10/28 10:28:21;;;;;;;;;;;;;;;21.80;73.13;101194.81;7281368;19;154058;-56
2022/10/28 10:30:50;;;;;;;;;;;;;;;21.79;73.16;101202.41;7286917;19;153384;-57
2022/10/28 10:33:24;;;;;;;;;;;;;;;21.80;72.89;101200.44;7293915;19;153780;-56
2022/10/28 10:36:03;;;;;;;;;;;;;;;21.80;72.83;101206.88;7282561;19;154063;-56
2022/10/28 10:38:30;;;;;;;;;;;;;;;21.80;73.27;101220.13;7285683;19;152086;-56
2022/10/28 10:40:57;;;;;;;;;;;;;;;21.80;73.05;101237.81;7283220;19;153297;-56
2022/10/28 10:43:34;;;;;;;;;;;;;;;21.78;73.05;101245.72;7281275;19;154191;-56
2022/10/28 10:46:02;;;;;;;;;;;;;;;21.78;72.63;101242.91;7285239;19;152315;-57
2022/10/28 10:48:35;;;;;;;;;;;;;;;21.77;71.69;101244.06;7285486;19;152825;-57
2022/10/28 10:51:16;;;;;;;;;;;;;;;21.76;70.85;101250.00;7257157;19;153839;-57
2022/10/28 10:53:47;;;;;;;;;;;;;;;21.75;70.50;101257.59;7278951;19;152063;-57
2022/10/28 10:56:21;;;;;;;;;;;;;;;21.73;70.41;101257.91;7289439;19;152632;-57
2022/10/28 10:58:52;;;;;;;;;;;;;;;21.72;70.83;101261.03;7282062;19;152547;-57
2022/10/28 11:01:25;;;;;;;;;;;;;;;21.72;70.91;101261.84;7280499;19;152708;-57
2022/10/28 11:03:55;;;;;;;;;;;;;;;21.71;71.05;101274.25;7281866;19;153310;-57
2022/10/28 11:06:43;;;;;;;;;;;;;;;21.69;70.35;101270.91;7282584;19;152447;-57
2022/10/28 11:09:19;;;;;;;;;;;;;;;21.71;70.32;101276.25;7283706;19;152433;-56
2022/10/28 11:11:45;;;;;;;;;;;;;;;21.69;70.14;101282.16;7281206;19;154802;-57
2022/10/28 11:14:12;;;;;;;;;;;;;;;21.68;70.48;101288.09;7283973;19;152264;-57
2022/10/28 11:16:52;;;;;;;;;;;;;;;21.66;69.74;101288.44;7283576;19;153568;-57
2022/10/28 11:19:20;;;;;;;;;;;;;;;21.66;69.30;101281.97;7289188;19;154466;-57
2022/10/28 11:21:52;;;;;;;;;;;;;;;21.65;69.72;101283.94;7283575;19;153778;-57
2022/10/28 11:24:30;;;;;;;;;;;;;;;21.66;69.31;101288.44;7284153;19;153776;-56
2022/10/28 11:27:02;;;;;;;;;;;;;;;21.65;68.81;101288.72;7283082;19;151825;-56
2022/10/28 11:29:29;;;;;;;;;;;;;;;21.65;68.33;101294.34;7283184;19;152522;-56
2022/10/28 11:32:06;;;;;;;;;;;;;;;21.64;68.56;101299.13;7282186;19;153943;-57
2022/10/28 11:34:33;;;;;;;;;;;;;;;21.63;68.61;101297.44;7283897;19;151972;-57
2022/10/28 11:37:24;;;;;;;;;;;;;;;21.63;68.26;101303.06;7281553;19;154560;-56
2022/10/28 11:40:09;;;;;;;;;;;;;;;21.60;67.98;101303.69;7279801;19;156351;-56
2022/10/28 11:42:41;;;;;;;;;;;;;;;21.61;67.83;101310.16;7288693;19;153422;-56
2022/10/28 11:45:22;;;;;;;;;;;;;;;21.60;67.85;101300.06;7280020;19;154044;-56
2022/10/28 11:47:58;;;;;;;;;;;;;;;21.61;67.63;101296.09;7280270;19;152186;-57
2022/10/28 11:51:01;;;;;;;;;;;;;;;21.62;67.68;101306.22;7282605;19;154377;-56
2022/10/28 11:53:57;;;;;;;;;;;;;;;21.61;67.74;101302.56;7276495;19;154378;-57
2022/10/28 11:57:05;;;;;;;;;;;;;;;21.61;67.42;101298.91;7278171;19;153084;-57
2022/10/28 12:00:03;;;;;;;;;;;;;;;21.60;67.26;101302.88;7278717;19;151874;-57
2022/10/28 12:02:50;;;;;;;;;;;;;;;21.61;67.43;101307.34;7278524;19;154772;-57
2022/10/28 12:05:18;;;;;;;;;;;;;;;21.61;67.40;101296.94;7281686;19;152020;-57
2022/10/28 12:07:48;;;;;;;;;;;;;;;21.61;67.45;101282.88;7289466;19;153953;-57
2022/10/28 12:10:26;;;;;;;;;;;;;;;21.62;67.42;101284.53;7283437;19;151907;-57
2022/10/28 12:13:08;;;;;;;;;;;;;;;21.64;67.17;101275.78;7258254;19;153796;-57
2022/10/28 12:15:52;;;;;;;;;;;;;;;21.65;67.23;101288.72;7271379;19;155104;-56
2022/10/28 12:18:36;;;;;;;;;;;;;;;21.65;66.83;101300.81;7269682;19;152460;-56
2022/10/28 12:21:41;;;;;;;;;;;;;;;21.65;66.84;101286.75;7275314;19;152434;-56
2022/10/28 12:24:23;;;;;;;;;;;;;;;21.66;67.27;101290.41;7278555;19;154770;-56
2022/10/28 12:27:05;;;;;;;;;;;;;;;21.66;67.29;101302.47;7279298;19;152680;-56
2022/10/28 12:30:00;;;;;;;;;;;;;;;21.66;66.63;101291.22;7279811;19;152766;-56
2022/10/28 12:33:02;;;;;;;;;;;;;;;21.66;67.16;101305.28;7281768;19;152778;-56
2022/10/28 12:36:18;;;;;;;;;;;;;;;21.66;66.78;101298.84;7279317;19;153186;-56
2022/10/28 12:39:09;;;;;;;;;;;;;;;21.67;67.21;101301.31;7281954;19;152848;-58
2022/10/28 12:41:58;;;;;;;;;;;;;;;21.67;66.97;101312.56;7276518;19;152235;-56
2022/10/28 12:44:46;;;;;;;;;;;;;;;21.67;66.91;101309.75;7280467;19;152189;-58
2022/10/28 12:47:21;;;;;;;;;;;;;;;21.68;67.02;101316.22;7275848;19;153073;-59
2022/10/28 12:50:14;;;;;;;;;;;;;;;21.68;66.79;101316.22;7266942;19;152268;-56